sensor_id;sensor_type;location;lat;lon;timestamp;P1;durP1;ratioP1;P2;durP2;ratioP2
23782;SDS011;12071;50.850;4.446;2022-09-09T00:01:00;3.45;;;1.67;;
23782;SDS011;12071;50.850;4.446;2022-09-09T00:03:44;6.40;;;1.98;;
23782;SDS011;12071;50.850;4.446;2022-09-09T00:11:13;9.30;;;2.25;;
23782;SDS011;12071;50.850;4.446;2022-09-09T00:13:52;5.57;;;1.77;;
23782;SDS011;12071;50.850;4.446;2022-09-09T00:16:22;5.10;;;1.80;;
23782;SDS011;12071;50.850;4.446;2022-09-09T00:21:27;3.85;;;1.70;;
23782;SDS011;12071;50.850;4.446;2022-09-09T00:24:00;6.00;;;1.73;;
23782;SDS011;12071;50.850;4.446;2022-09-09T00:26:51;4.18;;;1.60;;
23782;SDS011;12071;50.850;4.446;2022-09-09T00:29:28;4.68;;;1.50;;
23782;SDS011;12071;50.850;4.446;2022-09-09T00:32:12;5.05;;;1.48;;
23782;SDS011;12071;50.850;4.446;2022-09-09T00:34:47;7.40;;;1.45;;
23782;SDS011;12071;50.850;4.446;2022-09-09T00:37:14;6.38;;;1.60;;
23782;SDS011;12071;50.850;4.446;2022-09-09T00:39:42;6.13;;;1.98;;
23782;SDS011;12071;50.850;4.446;2022-09-09T00:42:25;6.72;;;2.00;;
23782;SDS011;12071;50.850;4.446;2022-09-09T00:45:41;5.43;;;1.92;;
23782;SDS011;12071;50.850;4.446;2022-09-09T00:48:08;5.82;;;1.75;;
23782;SDS011;12071;50.850;4.446;2022-09-09T00:50:50;4.80;;;1.52;;
23782;SDS011;12071;50.850;4.446;2022-09-09T00:53:24;5.93;;;1.80;;
23782;SDS011;12071;50.850;4.446;2022-09-09T00:58:47;4.32;;;1.77;;
23782;SDS011;12071;50.850;4.446;2022-09-09T01:01:17;5.32;;;1.83;;
23782;SDS011;12071;50.850;4.446;2022-09-09T01:03:53;3.67;;;1.52;;
23782;SDS011;12071;50.850;4.446;2022-09-09T01:09:07;5.78;;;1.40;;
23782;SDS011;12071;50.850;4.446;2022-09-09T01:24:41;5.53;;;1.70;;
23782;SDS011;12071;50.850;4.446;2022-09-09T01:27:27;6.65;;;1.80;;
23782;SDS011;12071;50.850;4.446;2022-09-09T01:29:53;6.07;;;1.70;;
23782;SDS011;12071;50.850;4.446;2022-09-09T01:35:10;8.07;;;1.83;;
23782;SDS011;12071;50.850;4.446;2022-09-09T01:37:53;11.05;;;1.83;;
23782;SDS011;12071;50.850;4.446;2022-09-09T01:40:19;9.68;;;1.70;;
23782;SDS011;12071;50.850;4.446;2022-09-09T01:42:44;6.97;;;1.80;;
23782;SDS011;12071;50.850;4.446;2022-09-09T01:45:10;9.32;;;2.00;;
23782;SDS011;12071;50.850;4.446;2022-09-09T01:47:36;8.40;;;2.28;;
23782;SDS011;12071;50.850;4.446;2022-09-09T01:50:01;13.60;;;2.33;;
23782;SDS011;12071;50.850;4.446;2022-09-09T01:52:28;8.95;;;2.03;;
23782;SDS011;12071;50.850;4.446;2022-09-09T01:54:54;8.27;;;2.20;;
23782;SDS011;12071;50.850;4.446;2022-09-09T01:59:52;9.30;;;1.92;;
23782;SDS011;12071;50.850;4.446;2022-09-09T02:03:00;10.50;;;2.13;;
23782;SDS011;12071;50.850;4.446;2022-09-09T02:05:38;6.30;;;2.13;;
23782;SDS011;12071;50.850;4.446;2022-09-09T02:08:08;14.07;;;2.70;;
23782;SDS011;12071;50.850;4.446;2022-09-09T02:10:59;8.30;;;2.38;;
23782;SDS011;12071;50.850;4.446;2022-09-09T02:13:30;10.77;;;2.22;;
23782;SDS011;12071;50.850;4.446;2022-09-09T02:16:22;13.07;;;2.97;;
23782;SDS011;12071;50.850;4.446;2022-09-09T02:18:57;6.70;;;2.30;;
23782;SDS011;12071;50.850;4.446;2022-09-09T02:21:31;13.23;;;2.45;;
23782;SDS011;12071;50.850;4.446;2022-09-09T02:24:00;6.65;;;2.45;;
23782;SDS011;12071;50.850;4.446;2022-09-09T02:26:29;10.07;;;2.72;;
23782;SDS011;12071;50.850;4.446;2022-09-09T02:28:58;8.10;;;2.40;;
23782;SDS011;12071;50.850;4.446;2022-09-09T02:31:26;5.22;;;2.50;;
23782;SDS011;12071;50.850;4.446;2022-09-09T02:33:57;13.07;;;2.55;;
23782;SDS011;12071;50.850;4.446;2022-09-09T02:36:26;9.75;;;2.92;;
23782;SDS011;12071;50.850;4.446;2022-09-09T02:38:58;13.13;;;2.22;;
23782;SDS011;12071;50.850;4.446;2022-09-09T02:41:32;8.98;;;2.65;;
23782;SDS011;12071;50.850;4.446;2022-09-09T02:43:59;8.23;;;2.40;;
23782;SDS011;12071;50.850;4.446;2022-09-09T02:52:18;8.75;;;2.72;;
23782;SDS011;12071;50.850;4.446;2022-09-09T02:54:50;13.85;;;3.53;;
23782;SDS011;12071;50.850;4.446;2022-09-09T02:57:28;9.80;;;2.55;;
23782;SDS011;12071;50.850;4.446;2022-09-09T02:59:57;10.30;;;2.55;;
23782;SDS011;12071;50.850;4.446;2022-09-09T03:02:23;11.20;;;3.17;;
23782;SDS011;12071;50.850;4.446;2022-09-09T03:04:50;13.98;;;2.70;;
23782;SDS011;12071;50.850;4.446;2022-09-09T03:07:17;15.52;;;3.03;;
23782;SDS011;12071;50.850;4.446;2022-09-09T03:09:43;16.58;;;3.20;;
23782;SDS011;12071;50.850;4.446;2022-09-09T03:12:09;13.48;;;3.17;;
23782;SDS011;12071;50.850;4.446;2022-09-09T03:14:36;9.30;;;2.70;;
23782;SDS011;12071;50.850;4.446;2022-09-09T03:17:03;14.13;;;2.90;;
23782;SDS011;12071;50.850;4.446;2022-09-09T03:19:30;12.30;;;3.42;;
23782;SDS011;12071;50.850;4.446;2022-09-09T03:21:56;11.20;;;3.42;;
23782;SDS011;12071;50.850;4.446;2022-09-09T03:24:23;12.55;;;3.10;;
23782;SDS011;12071;50.850;4.446;2022-09-09T03:26:49;11.68;;;3.03;;
23782;SDS011;12071;50.850;4.446;2022-09-09T03:29:15;10.93;;;2.88;;
23782;SDS011;12071;50.850;4.446;2022-09-09T03:31:44;16.15;;;3.35;;
23782;SDS011;12071;50.850;4.446;2022-09-09T03:34:10;16.77;;;2.78;;
23782;SDS011;12071;50.850;4.446;2022-09-09T03:36:36;15.05;;;3.00;;
23782;SDS011;12071;50.850;4.446;2022-09-09T03:39:02;12.85;;;3.33;;
23782;SDS011;12071;50.850;4.446;2022-09-09T03:41:29;13.82;;;2.70;;
23782;SDS011;12071;50.850;4.446;2022-09-09T03:43:55;10.98;;;2.67;;
23782;SDS011;12071;50.850;4.446;2022-09-09T03:46:22;15.90;;;3.63;;
23782;SDS011;12071;50.850;4.446;2022-09-09T03:48:49;11.60;;;2.40;;
23782;SDS011;12071;50.850;4.446;2022-09-09T03:51:15;11.85;;;2.20;;
23782;SDS011;12071;50.850;4.446;2022-09-09T03:53:41;13.75;;;2.70;;
23782;SDS011;12071;50.850;4.446;2022-09-09T03:56:08;19.00;;;3.38;;
23782;SDS011;12071;50.850;4.446;2022-09-09T03:58:34;15.00;;;3.13;;
23782;SDS011;12071;50.850;4.446;2022-09-09T04:01:08;9.75;;;3.22;;
23782;SDS011;12071;50.850;4.446;2022-09-09T04:03:36;12.23;;;3.08;;
23782;SDS011;12071;50.850;4.446;2022-09-09T04:06:02;10.95;;;2.80;;
23782;SDS011;12071;50.850;4.446;2022-09-09T04:08:29;11.10;;;3.17;;
23782;SDS011;12071;50.850;4.446;2022-09-09T04:10:59;17.20;;;3.38;;
23782;SDS011;12071;50.850;4.446;2022-09-09T04:13:27;13.73;;;2.92;;
23782;SDS011;12071;50.850;4.446;2022-09-09T04:15:57;12.52;;;2.72;;
23782;SDS011;12071;50.850;4.446;2022-09-09T04:18:24;12.65;;;2.78;;
23782;SDS011;12071;50.850;4.446;2022-09-09T04:20:51;15.77;;;2.78;;
23782;SDS011;12071;50.850;4.446;2022-09-09T04:23:17;12.20;;;2.90;;
23782;SDS011;12071;50.850;4.446;2022-09-09T04:25:45;13.10;;;2.50;;
23782;SDS011;12071;50.850;4.446;2022-09-09T04:28:15;9.75;;;2.70;;
23782;SDS011;12071;50.850;4.446;2022-09-09T04:30:42;13.35;;;3.40;;
23782;SDS011;12071;50.850;4.446;2022-09-09T04:33:10;10.38;;;3.38;;
23782;SDS011;12071;50.850;4.446;2022-09-09T04:35:36;15.65;;;3.08;;
23782;SDS011;12071;50.850;4.446;2022-09-09T04:38:03;9.88;;;2.78;;
23782;SDS011;12071;50.850;4.446;2022-09-09T04:40:30;14.10;;;3.53;;
23782;SDS011;12071;50.850;4.446;2022-09-09T04:42:59;15.55;;;3.40;;
23782;SDS011;12071;50.850;4.446;2022-09-09T04:45:26;11.80;;;2.65;;
23782;SDS011;12071;50.850;4.446;2022-09-09T04:47:51;11.27;;;3.00;;
23782;SDS011;12071;50.850;4.446;2022-09-09T04:50:19;13.98;;;3.00;;
23782;SDS011;12071;50.850;4.446;2022-09-09T04:52:44;11.77;;;3.42;;
23782;SDS011;12071;50.850;4.446;2022-09-09T04:55:10;13.38;;;3.15;;
23782;SDS011;12071;50.850;4.446;2022-09-09T04:57:37;12.60;;;3.00;;
23782;SDS011;12071;50.850;4.446;2022-09-09T05:00:04;10.43;;;3.30;;
23782;SDS011;12071;50.850;4.446;2022-09-09T05:02:30;19.75;;;3.28;;
23782;SDS011;12071;50.850;4.446;2022-09-09T05:04:57;11.95;;;3.42;;
23782;SDS011;12071;50.850;4.446;2022-09-09T05:07:23;13.98;;;3.72;;
23782;SDS011;12071;50.850;4.446;2022-09-09T05:09:48;14.65;;;3.47;;
23782;SDS011;12071;50.850;4.446;2022-09-09T05:12:15;9.27;;;3.13;;
23782;SDS011;12071;50.850;4.446;2022-09-09T05:14:43;16.40;;;3.55;;
23782;SDS011;12071;50.850;4.446;2022-09-09T05:17:09;10.23;;;2.95;;
23782;SDS011;12071;50.850;4.446;2022-09-09T05:19:37;13.30;;;3.17;;
23782;SDS011;12071;50.850;4.446;2022-09-09T05:22:06;12.27;;;3.33;;
23782;SDS011;12071;50.850;4.446;2022-09-09T05:24:32;12.57;;;3.28;;
23782;SDS011;12071;50.850;4.446;2022-09-09T05:26:58;10.15;;;3.25;;
23782;SDS011;12071;50.850;4.446;2022-09-09T05:29:26;15.65;;;3.08;;
23782;SDS011;12071;50.850;4.446;2022-09-09T05:31:52;14.55;;;3.30;;
23782;SDS011;12071;50.850;4.446;2022-09-09T05:34:18;10.02;;;2.75;;
23782;SDS011;12071;50.850;4.446;2022-09-09T05:36:44;14.63;;;2.80;;
23782;SDS011;12071;50.850;4.446;2022-09-09T05:39:10;13.02;;;2.45;;
23782;SDS011;12071;50.850;4.446;2022-09-09T05:41:37;15.35;;;3.67;;
23782;SDS011;12071;50.850;4.446;2022-09-09T05:44:03;13.02;;;2.63;;
23782;SDS011;12071;50.850;4.446;2022-09-09T05:46:29;13.45;;;3.50;;
23782;SDS011;12071;50.850;4.446;2022-09-09T05:48:55;12.93;;;3.08;;
23782;SDS011;12071;50.850;4.446;2022-09-09T05:51:21;13.27;;;2.55;;
23782;SDS011;12071;50.850;4.446;2022-09-09T05:53:49;10.43;;;2.40;;
23782;SDS011;12071;50.850;4.446;2022-09-09T05:56:26;14.07;;;2.72;;
23782;SDS011;12071;50.850;4.446;2022-09-09T05:58:53;11.40;;;2.50;;
23782;SDS011;12071;50.850;4.446;2022-09-09T06:01:24;13.43;;;3.10;;
23782;SDS011;12071;50.850;4.446;2022-09-09T06:03:54;12.68;;;2.97;;
23782;SDS011;12071;50.850;4.446;2022-09-09T06:06:21;12.75;;;2.95;;
23782;SDS011;12071;50.850;4.446;2022-09-09T06:08:52;14.85;;;3.38;;
23782;SDS011;12071;50.850;4.446;2022-09-09T06:11:20;22.83;;;3.72;;
23782;SDS011;12071;50.850;4.446;2022-09-09T06:13:47;12.98;;;2.63;;
23782;SDS011;12071;50.850;4.446;2022-09-09T06:16:17;15.63;;;3.08;;
23782;SDS011;12071;50.850;4.446;2022-09-09T06:18:43;11.77;;;2.50;;
23782;SDS011;12071;50.850;4.446;2022-09-09T06:21:16;13.80;;;2.85;;
23782;SDS011;12071;50.850;4.446;2022-09-09T06:23:49;17.98;;;3.45;;
23782;SDS011;12071;50.850;4.446;2022-09-09T06:26:23;14.65;;;2.58;;
23782;SDS011;12071;50.850;4.446;2022-09-09T06:28:51;14.35;;;2.92;;
23782;SDS011;12071;50.850;4.446;2022-09-09T06:31:19;12.57;;;2.83;;
23782;SDS011;12071;50.850;4.446;2022-09-09T06:33:47;9.50;;;2.33;;
23782;SDS011;12071;50.850;4.446;2022-09-09T06:36:24;13.82;;;2.90;;
23782;SDS011;12071;50.850;4.446;2022-09-09T06:38:51;8.70;;;2.28;;
23782;SDS011;12071;50.850;4.446;2022-09-09T06:41:18;7.32;;;1.92;;
23782;SDS011;12071;50.850;4.446;2022-09-09T06:43:48;10.65;;;2.47;;
23782;SDS011;12071;50.850;4.446;2022-09-09T06:46:17;11.20;;;2.28;;
23782;SDS011;12071;50.850;4.446;2022-09-09T06:48:48;7.47;;;2.08;;
23782;SDS011;12071;50.850;4.446;2022-09-09T06:51:18;10.38;;;2.00;;
23782;SDS011;12071;50.850;4.446;2022-09-09T06:53:46;15.65;;;2.20;;
23782;SDS011;12071;50.850;4.446;2022-09-09T06:58:43;10.40;;;2.20;;
23782;SDS011;12071;50.850;4.446;2022-09-09T07:01:10;10.05;;;1.77;;
23782;SDS011;12071;50.850;4.446;2022-09-09T07:03:41;12.98;;;2.05;;
23782;SDS011;12071;50.850;4.446;2022-09-09T07:06:08;13.95;;;2.17;;
23782;SDS011;12071;50.850;4.446;2022-09-09T07:08:39;11.60;;;1.90;;
23782;SDS011;12071;50.850;4.446;2022-09-09T07:11:06;9.50;;;2.10;;
23782;SDS011;12071;50.850;4.446;2022-09-09T07:13:33;11.32;;;2.13;;
23782;SDS011;12071;50.850;4.446;2022-09-09T07:16:09;11.73;;;2.40;;
23782;SDS011;12071;50.850;4.446;2022-09-09T07:18:36;11.10;;;2.28;;
23782;SDS011;12071;50.850;4.446;2022-09-09T07:21:02;12.38;;;2.35;;
23782;SDS011;12071;50.850;4.446;2022-09-09T07:23:29;10.13;;;2.40;;
23782;SDS011;12071;50.850;4.446;2022-09-09T07:25:55;10.32;;;1.70;;
23782;SDS011;12071;50.850;4.446;2022-09-09T07:28:21;10.82;;;2.03;;
23782;SDS011;12071;50.850;4.446;2022-09-09T07:30:54;13.73;;;2.28;;
23782;SDS011;12071;50.850;4.446;2022-09-09T07:33:24;11.98;;;2.00;;
23782;SDS011;12071;50.850;4.446;2022-09-09T07:35:50;8.48;;;2.00;;
23782;SDS011;12071;50.850;4.446;2022-09-09T07:38:17;11.73;;;2.55;;
23782;SDS011;12071;50.850;4.446;2022-09-09T07:40:44;13.10;;;2.03;;
23782;SDS011;12071;50.850;4.446;2022-09-09T07:43:10;11.48;;;2.03;;
23782;SDS011;12071;50.850;4.446;2022-09-09T07:45:36;8.13;;;2.03;;
23782;SDS011;12071;50.850;4.446;2022-09-09T07:48:02;10.30;;;2.28;;
23782;SDS011;12071;50.850;4.446;2022-09-09T07:50:28;10.60;;;2.30;;
23782;SDS011;12071;50.850;4.446;2022-09-09T07:52:54;13.75;;;2.60;;
23782;SDS011;12071;50.850;4.446;2022-09-09T07:55:20;10.93;;;2.03;;
23782;SDS011;12071;50.850;4.446;2022-09-09T07:57:50;10.43;;;2.33;;
23782;SDS011;12071;50.850;4.446;2022-09-09T08:00:15;10.25;;;2.33;;
23782;SDS011;12071;50.850;4.446;2022-09-09T08:02:41;8.73;;;2.00;;
23782;SDS011;12071;50.850;4.446;2022-09-09T08:05:07;7.22;;;2.10;;
23782;SDS011;12071;50.850;4.446;2022-09-09T08:07:33;11.65;;;2.40;;
23782;SDS011;12071;50.850;4.446;2022-09-09T08:09:59;13.80;;;2.60;;
23782;SDS011;12071;50.850;4.446;2022-09-09T08:12:24;8.52;;;2.72;;
23782;SDS011;12071;50.850;4.446;2022-09-09T08:14:50;9.38;;;2.33;;
23782;SDS011;12071;50.850;4.446;2022-09-09T08:17:16;11.65;;;2.20;;
23782;SDS011;12071;50.850;4.446;2022-09-09T08:19:42;8.60;;;2.28;;
23782;SDS011;12071;50.850;4.446;2022-09-09T08:22:09;10.80;;;2.17;;
23782;SDS011;12071;50.850;4.446;2022-09-09T08:24:35;10.23;;;2.17;;
23782;SDS011;12071;50.850;4.446;2022-09-09T08:27:01;10.23;;;2.03;;
23782;SDS011;12071;50.850;4.446;2022-09-09T08:29:26;9.35;;;2.20;;
23782;SDS011;12071;50.850;4.446;2022-09-09T08:31:53;15.30;;;2.20;;
23782;SDS011;12071;50.850;4.446;2022-09-09T08:34:22;6.70;;;2.08;;
23782;SDS011;12071;50.850;4.446;2022-09-09T08:36:48;8.60;;;1.88;;
23782;SDS011;12071;50.850;4.446;2022-09-09T08:39:16;10.23;;;2.50;;
23782;SDS011;12071;50.850;4.446;2022-09-09T08:41:50;9.20;;;2.10;;
23782;SDS011;12071;50.850;4.446;2022-09-09T08:49:46;8.05;;;2.10;;
23782;SDS011;12071;50.850;4.446;2022-09-09T08:52:38;8.02;;;1.85;;
23782;SDS011;12071;50.850;4.446;2022-09-09T08:57:47;8.25;;;2.10;;
23782;SDS011;12071;50.850;4.446;2022-09-09T09:00:17;10.13;;;2.42;;
23782;SDS011;12071;50.850;4.446;2022-09-09T09:08:36;6.13;;;2.33;;
23782;SDS011;12071;50.850;4.446;2022-09-09T09:11:19;10.30;;;2.22;;
23782;SDS011;12071;50.850;4.446;2022-09-09T09:13:53;9.70;;;2.35;;
23782;SDS011;12071;50.850;4.446;2022-09-09T09:16:29;9.85;;;1.90;;
23782;SDS011;12071;50.850;4.446;2022-09-09T09:19:00;12.18;;;2.08;;
23782;SDS011;12071;50.850;4.446;2022-09-09T09:24:00;12.48;;;2.25;;
23782;SDS011;12071;50.850;4.446;2022-09-09T09:26:33;10.32;;;1.92;;
23782;SDS011;12071;50.850;4.446;2022-09-09T09:29:01;8.75;;;2.10;;
23782;SDS011;12071;50.850;4.446;2022-09-09T09:31:37;12.73;;;2.70;;
23782;SDS011;12071;50.850;4.446;2022-09-09T09:34:03;15.38;;;2.45;;
23782;SDS011;12071;50.850;4.446;2022-09-09T09:36:37;9.88;;;2.22;;
23782;SDS011;12071;50.850;4.446;2022-09-09T09:39:06;7.80;;;2.05;;
23782;SDS011;12071;50.850;4.446;2022-09-09T09:41:34;13.85;;;2.70;;
23782;SDS011;12071;50.850;4.446;2022-09-09T09:44:02;6.13;;;1.92;;
23782;SDS011;12071;50.850;4.446;2022-09-09T09:46:29;9.88;;;2.10;;
23782;SDS011;12071;50.850;4.446;2022-09-09T09:48:59;9.27;;;2.58;;
23782;SDS011;12071;50.850;4.446;2022-09-09T09:51:27;10.37;;;2.13;;
23782;SDS011;12071;50.850;4.446;2022-09-09T09:54:02;9.60;;;2.03;;
23782;SDS011;12071;50.850;4.446;2022-09-09T09:56:34;6.45;;;2.20;;
23782;SDS011;12071;50.850;4.446;2022-09-09T09:59:00;9.07;;;2.10;;
23782;SDS011;12071;50.850;4.446;2022-09-09T10:01:27;12.23;;;2.35;;
23782;SDS011;12071;50.850;4.446;2022-09-09T10:04:00;14.88;;;2.63;;
23782;SDS011;12071;50.850;4.446;2022-09-09T10:06:34;6.03;;;2.25;;
23782;SDS011;12071;50.850;4.446;2022-09-09T10:09:03;10.35;;;2.28;;
23782;SDS011;12071;50.850;4.446;2022-09-09T10:11:44;9.80;;;2.83;;
23782;SDS011;12071;50.850;4.446;2022-09-09T10:14:21;11.88;;;2.55;;
23782;SDS011;12071;50.850;4.446;2022-09-09T10:17:07;11.40;;;2.20;;
23782;SDS011;12071;50.850;4.446;2022-09-09T10:23:05;8.00;;;2.28;;
23782;SDS011;12071;50.850;4.446;2022-09-09T10:33:56;7.68;;;2.40;;
23782;SDS011;12071;50.850;4.446;2022-09-09T10:36:46;10.15;;;2.65;;
23782;SDS011;12071;50.850;4.446;2022-09-09T10:39:22;9.35;;;2.15;;
23782;SDS011;12071;50.850;4.446;2022-09-09T10:41:54;7.90;;;1.90;;
23782;SDS011;12071;50.850;4.446;2022-09-09T10:47:14;7.57;;;1.90;;
23782;SDS011;12071;50.850;4.446;2022-09-09T10:55:27;7.50;;;1.92;;
23782;SDS011;12071;50.850;4.446;2022-09-09T11:00:47;13.48;;;2.15;;
23782;SDS011;12071;50.850;4.446;2022-09-09T11:05:51;9.02;;;1.80;;
23782;SDS011;12071;50.850;4.446;2022-09-09T11:08:28;9.18;;;1.77;;
23782;SDS011;12071;50.850;4.446;2022-09-09T11:16:19;4.82;;;1.58;;
23782;SDS011;12071;50.850;4.446;2022-09-09T11:18:55;7.78;;;1.60;;
23782;SDS011;12071;50.850;4.446;2022-09-09T11:21:46;7.93;;;1.70;;
23782;SDS011;12071;50.850;4.446;2022-09-09T11:26:57;5.05;;;1.25;;
23782;SDS011;12071;50.850;4.446;2022-09-09T11:37:59;7.22;;;1.83;;
23782;SDS011;12071;50.850;4.446;2022-09-09T11:40:34;7.25;;;1.63;;
23782;SDS011;12071;50.850;4.446;2022-09-09T11:43:13;10.70;;;1.75;;
23782;SDS011;12071;50.850;4.446;2022-09-09T11:45:42;6.00;;;1.65;;
23782;SDS011;12071;50.850;4.446;2022-09-09T11:58:57;6.43;;;1.30;;
23782;SDS011;12071;50.850;4.446;2022-09-09T12:01:33;5.25;;;1.40;;
23782;SDS011;12071;50.850;4.446;2022-09-09T12:09:51;6.57;;;1.48;;
23782;SDS011;12071;50.850;4.446;2022-09-09T12:13:06;5.80;;;1.30;;
23782;SDS011;12071;50.850;4.446;2022-09-09T12:22:45;9.68;;;1.50;;
23782;SDS011;12071;50.850;4.446;2022-09-09T12:28:22;8.57;;;1.73;;
23782;SDS011;12071;50.850;4.446;2022-09-09T12:31:10;6.10;;;1.35;;
23782;SDS011;12071;50.850;4.446;2022-09-09T12:33:45;8.32;;;3.33;;
23782;SDS011;12071;50.850;4.446;2022-09-09T12:36:16;6.00;;;1.77;;
23782;SDS011;12071;50.850;4.446;2022-09-09T12:38:53;7.85;;;1.80;;
23782;SDS011;12071;50.850;4.446;2022-09-09T12:41:22;5.05;;;1.38;;
23782;SDS011;12071;50.850;4.446;2022-09-09T12:43:49;7.50;;;1.40;;
23782;SDS011;12071;50.850;4.446;2022-09-09T12:46:59;3.70;;;1.23;;
23782;SDS011;12071;50.850;4.446;2022-09-09T12:49:25;13.93;;;1.88;;
23782;SDS011;12071;50.850;4.446;2022-09-09T12:51:51;4.13;;;1.10;;
23782;SDS011;12071;50.850;4.446;2022-09-09T12:54:18;6.72;;;1.38;;
23782;SDS011;12071;50.850;4.446;2022-09-09T12:56:45;6.72;;;1.38;;
23782;SDS011;12071;50.850;4.446;2022-09-09T12:59:23;8.13;;;1.42;;
23782;SDS011;12071;50.850;4.446;2022-09-09T13:02:00;5.22;;;1.33;;
23782;SDS011;12071;50.850;4.446;2022-09-09T13:04:26;5.05;;;1.05;;
23782;SDS011;12071;50.850;4.446;2022-09-09T13:06:51;4.28;;;0.90;;
23782;SDS011;12071;50.850;4.446;2022-09-09T13:09:17;5.22;;;1.13;;
23782;SDS011;12071;50.850;4.446;2022-09-09T13:11:50;4.00;;;1.15;;
23782;SDS011;12071;50.850;4.446;2022-09-09T13:17:03;13.50;;;2.40;;
23782;SDS011;12071;50.850;4.446;2022-09-09T13:19:31;5.03;;;1.02;;
23782;SDS011;12071;50.850;4.446;2022-09-09T13:22:10;3.53;;;1.25;;
23782;SDS011;12071;50.850;4.446;2022-09-09T13:24:44;6.57;;;1.52;;
23782;SDS011;12071;50.850;4.446;2022-09-09T13:30:21;5.85;;;1.33;;
23782;SDS011;12071;50.850;4.446;2022-09-09T13:35:50;6.50;;;1.13;;
23782;SDS011;12071;50.850;4.446;2022-09-09T13:38:53;5.35;;;1.40;;
23782;SDS011;12071;50.850;4.446;2022-09-09T13:41:22;8.15;;;1.00;;
23782;SDS011;12071;50.850;4.446;2022-09-09T13:43:49;3.60;;;0.85;;
23782;SDS011;12071;50.850;4.446;2022-09-09T13:49:02;4.78;;;1.13;;
23782;SDS011;12071;50.850;4.446;2022-09-09T13:51:41;4.43;;;0.93;;
23782;SDS011;12071;50.850;4.446;2022-09-09T13:54:13;2.90;;;0.80;;
23782;SDS011;12071;50.850;4.446;2022-09-09T13:56:40;1.73;;;0.80;;
23782;SDS011;12071;50.850;4.446;2022-09-09T13:59:13;3.50;;;0.77;;
23782;SDS011;12071;50.850;4.446;2022-09-09T14:01:40;5.00;;;0.88;;
23782;SDS011;12071;50.850;4.446;2022-09-09T14:04:06;2.67;;;0.90;;
23782;SDS011;12071;50.850;4.446;2022-09-09T14:06:33;4.07;;;0.90;;
23782;SDS011;12071;50.850;4.446;2022-09-09T14:09:02;3.60;;;1.08;;
23782;SDS011;12071;50.850;4.446;2022-09-09T14:11:27;3.40;;;1.20;;
23782;SDS011;12071;50.850;4.446;2022-09-09T14:13:53;4.22;;;1.27;;
23782;SDS011;12071;50.850;4.446;2022-09-09T14:16:18;2.97;;;0.90;;
23782;SDS011;12071;50.850;4.446;2022-09-09T14:18:45;3.13;;;0.75;;
23782;SDS011;12071;50.850;4.446;2022-09-09T14:21:11;4.28;;;1.33;;
23782;SDS011;12071;50.850;4.446;2022-09-09T14:23:37;2.60;;;1.00;;
23782;SDS011;12071;50.850;4.446;2022-09-09T14:26:03;5.55;;;1.20;;
23782;SDS011;12071;50.850;4.446;2022-09-09T14:28:32;6.05;;;1.50;;
23782;SDS011;12071;50.850;4.446;2022-09-09T14:31:02;4.72;;;1.52;;
23782;SDS011;12071;50.850;4.446;2022-09-09T14:33:28;3.88;;;1.13;;
23782;SDS011;12071;50.850;4.446;2022-09-09T14:36:01;4.32;;;1.20;;
23782;SDS011;12071;50.850;4.446;2022-09-09T14:38:29;10.23;;;1.48;;
23782;SDS011;12071;50.850;4.446;2022-09-09T14:40:59;6.95;;;1.35;;
23782;SDS011;12071;50.850;4.446;2022-09-09T14:43:28;3.63;;;1.27;;
23782;SDS011;12071;50.850;4.446;2022-09-09T14:45:55;3.42;;;1.38;;
23782;SDS011;12071;50.850;4.446;2022-09-09T14:48:20;3.60;;;1.20;;
23782;SDS011;12071;50.850;4.446;2022-09-09T14:50:46;6.30;;;1.58;;
23782;SDS011;12071;50.850;4.446;2022-09-09T14:53:11;4.82;;;1.08;;
23782;SDS011;12071;50.850;4.446;2022-09-09T14:55:37;5.55;;;1.00;;
23782;SDS011;12071;50.850;4.446;2022-09-09T14:58:03;8.70;;;1.58;;
23782;SDS011;12071;50.850;4.446;2022-09-09T15:00:31;9.32;;;1.75;;
23782;SDS011;12071;50.850;4.446;2022-09-09T15:02:56;4.20;;;1.27;;
23782;SDS011;12071;50.850;4.446;2022-09-09T15:05:22;5.05;;;1.10;;
23782;SDS011;12071;50.850;4.446;2022-09-09T15:07:49;5.85;;;1.08;;
23782;SDS011;12071;50.850;4.446;2022-09-09T15:10:14;4.13;;;0.90;;
23782;SDS011;12071;50.850;4.446;2022-09-09T15:12:42;6.05;;;1.02;;
23782;SDS011;12071;50.850;4.446;2022-09-09T15:15:08;5.95;;;1.00;;
23782;SDS011;12071;50.850;4.446;2022-09-09T15:17:34;7.90;;;1.30;;
23782;SDS011;12071;50.850;4.446;2022-09-09T15:20:01;2.10;;;0.77;;
23782;SDS011;12071;50.850;4.446;2022-09-09T15:22:33;5.70;;;1.13;;
23782;SDS011;12071;50.850;4.446;2022-09-09T15:24:59;3.78;;;1.45;;
23782;SDS011;12071;50.850;4.446;2022-09-09T15:27:24;2.80;;;0.70;;
23782;SDS011;12071;50.850;4.446;2022-09-09T15:29:50;5.05;;;1.10;;
23782;SDS011;12071;50.850;4.446;2022-09-09T15:32:16;3.65;;;1.00;;
23782;SDS011;12071;50.850;4.446;2022-09-09T15:34:42;5.38;;;1.20;;
23782;SDS011;12071;50.850;4.446;2022-09-09T15:37:11;4.07;;;1.10;;
23782;SDS011;12071;50.850;4.446;2022-09-09T15:39:40;4.88;;;1.20;;
23782;SDS011;12071;50.850;4.446;2022-09-09T15:42:06;5.97;;;1.02;;
23782;SDS011;12071;50.850;4.446;2022-09-09T15:44:41;4.47;;;1.02;;
23782;SDS011;12071;50.850;4.446;2022-09-09T15:47:07;3.58;;;1.00;;
23782;SDS011;12071;50.850;4.446;2022-09-09T15:49:35;5.07;;;1.25;;
23782;SDS011;12071;50.850;4.446;2022-09-09T15:52:01;3.92;;;1.05;;
23782;SDS011;12071;50.850;4.446;2022-09-09T15:54:28;5.75;;;1.38;;
23782;SDS011;12071;50.850;4.446;2022-09-09T15:56:58;7.10;;;1.35;;
23782;SDS011;12071;50.850;4.446;2022-09-09T15:59:25;6.22;;;1.65;;
23782;SDS011;12071;50.850;4.446;2022-09-09T16:01:55;2.30;;;0.98;;
23782;SDS011;12071;50.850;4.446;2022-09-09T16:04:22;5.07;;;0.90;;
23782;SDS011;12071;50.850;4.446;2022-09-09T16:06:50;2.03;;;0.82;;
23782;SDS011;12071;50.850;4.446;2022-09-09T16:09:16;3.78;;;1.00;;
23782;SDS011;12071;50.850;4.446;2022-09-09T16:11:43;4.40;;;1.25;;
23782;SDS011;12071;50.850;4.446;2022-09-09T16:14:08;2.95;;;1.15;;
23782;SDS011;12071;50.850;4.446;2022-09-09T16:16:34;4.82;;;1.27;;
23782;SDS011;12071;50.850;4.446;2022-09-09T16:19:02;7.55;;;1.58;;
23782;SDS011;12071;50.850;4.446;2022-09-09T16:21:32;3.40;;;1.07;;
23782;SDS011;12071;50.850;4.446;2022-09-09T16:24:00;4.57;;;1.20;;
23782;SDS011;12071;50.850;4.446;2022-09-09T16:26:28;9.25;;;1.40;;
23782;SDS011;12071;50.850;4.446;2022-09-09T16:28:54;6.55;;;1.75;;
23782;SDS011;12071;50.850;4.446;2022-09-09T16:31:21;2.83;;;1.25;;
23782;SDS011;12071;50.850;4.446;2022-09-09T16:33:48;4.15;;;1.40;;
23782;SDS011;12071;50.850;4.446;2022-09-09T16:36:16;3.50;;;1.38;;
23782;SDS011;12071;50.850;4.446;2022-09-09T16:38:43;4.72;;;1.45;;
23782;SDS011;12071;50.850;4.446;2022-09-09T16:41:10;4.38;;;1.58;;
23782;SDS011;12071;50.850;4.446;2022-09-09T16:43:37;5.90;;;1.60;;
23782;SDS011;12071;50.850;4.446;2022-09-09T16:46:03;4.15;;;1.35;;
23782;SDS011;12071;50.850;4.446;2022-09-09T16:48:37;4.70;;;1.50;;
23782;SDS011;12071;50.850;4.446;2022-09-09T16:51:04;3.08;;;1.10;;
23782;SDS011;12071;50.850;4.446;2022-09-09T16:53:34;3.85;;;1.20;;
23782;SDS011;12071;50.850;4.446;2022-09-09T16:56:06;4.68;;;1.20;;
23782;SDS011;12071;50.850;4.446;2022-09-09T16:58:32;4.97;;;1.35;;
23782;SDS011;12071;50.850;4.446;2022-09-09T17:00:58;4.20;;;1.48;;
23782;SDS011;12071;50.850;4.446;2022-09-09T17:03:24;4.07;;;1.30;;
23782;SDS011;12071;50.850;4.446;2022-09-09T17:05:50;6.85;;;1.55;;
23782;SDS011;12071;50.850;4.446;2022-09-09T17:08:16;5.10;;;1.50;;
23782;SDS011;12071;50.850;4.446;2022-09-09T17:10:42;4.38;;;1.20;;
23782;SDS011;12071;50.850;4.446;2022-09-09T17:13:07;3.70;;;1.38;;
23782;SDS011;12071;50.850;4.446;2022-09-09T17:15:33;3.97;;;1.33;;